createdAt,value
2019-02-11T00:00:59.320Z,61.21
2019-02-11T00:03:26.742Z,61.39
2019-02-11T00:05:54.210Z,61.02
2019-02-11T00:08:21.619Z,60.67
2019-02-11T00:10:49.015Z,60.73
2019-02-11T00:13:16.636Z,60.65
2019-02-11T00:15:44.055Z,60.93
2019-02-11T00:18:11.563Z,61.21
2019-02-11T00:20:39.098Z,61.34
2019-02-11T00:23:06.487Z,61.38
2019-02-11T00:25:33.913Z,61.34
2019-02-11T00:28:01.319Z,61.19
2019-02-11T00:30:28.751Z,60.84
2019-02-11T00:32:56.228Z,61.02
2019-02-11T00:35:23.569Z,60.67
2019-02-11T00:37:50.987Z,61.24
2019-02-11T00:40:18.416Z,62.10
2019-02-11T00:42:45.804Z,64.55
2019-02-11T00:45:13.223Z,66.60
2019-02-11T00:47:40.628Z,68.17
2019-02-11T00:50:08.020Z,69.55
2019-02-11T00:52:35.425Z,71.04
2019-02-11T00:55:02.936Z,71.38
2019-02-11T00:57:30.449Z,71.83
2019-02-11T00:59:57.830Z,72.10
2019-02-11T01:02:25.299Z,72.41
2019-02-11T01:04:52.715Z,73.19
2019-02-11T01:07:20.099Z,73.27
2019-02-11T01:09:48.039Z,73.67
2019-02-11T01:12:15.449Z,74.26
2019-02-11T01:14:42.957Z,74.31
2019-02-11T01:17:10.342Z,74.78
2019-02-11T01:19:37.751Z,76.00
2019-02-11T01:22:05.236Z,76.26
2019-02-11T01:24:32.648Z,77.04
2019-02-11T01:27:00.065Z,76.92
2019-02-11T01:29:27.447Z,76.64
2019-02-11T01:31:54.840Z,76.85
2019-02-11T01:34:22.519Z,76.75
2019-02-11T01:36:49.913Z,76.84
2019-02-11T01:39:17.324Z,76.83
2019-02-11T01:41:44.708Z,76.74
2019-02-11T01:44:12.135Z,75.70
2019-02-11T01:46:39.698Z,75.02
2019-02-11T01:49:07.081Z,75.31
2019-02-11T01:51:34.502Z,76.27
2019-02-11T01:54:01.898Z,76.47
2019-02-11T01:56:29.342Z,76.09
2019-02-11T01:58:56.731Z,76.79
2019-02-11T02:01:24.131Z,76.58
2019-02-11T02:03:51.547Z,76.82
2019-02-11T02:06:18.941Z,76.93
2019-02-11T02:08:46.347Z,76.97
2019-02-11T02:11:13.917Z,77.26
2019-02-11T02:13:44.827Z,77.22
2019-02-11T02:16:08.765Z,76.54
2019-02-11T02:18:36.149Z,76.44
2019-02-11T02:21:03.888Z,76.20
2019-02-11T02:23:31.279Z,77.48
2019-02-11T02:25:58.710Z,77.04
2019-02-11T02:28:26.131Z,76.92
2019-02-11T02:30:53.520Z,77.88
2019-02-11T02:33:20.922Z,77.94
2019-02-11T02:35:48.346Z,77.89
2019-02-11T02:38:16.089Z,78.35
2019-02-11T02:40:43.492Z,78.91
2019-02-11T02:43:10.899Z,79.18
2019-02-11T02:45:38.368Z,79.47
2019-02-11T02:48:05.789Z,79.72
2019-02-11T02:50:33.201Z,79.92
2019-02-11T02:53:00.613Z,80.42
2019-02-11T02:55:28.210Z,80.88
2019-02-11T02:57:55.658Z,81.10
2019-02-11T03:00:23.041Z,81.09
2019-02-11T03:02:50.436Z,80.60
2019-02-11T03:05:17.837Z,79.94
2019-02-11T03:07:45.232Z,79.41
2019-02-11T03:10:12.749Z,78.40
2019-02-11T03:12:40.154Z,76.39
2019-02-11T03:15:07.639Z,75.26
2019-02-11T03:17:35.076Z,74.09
2019-02-11T03:20:02.479Z,74.44
2019-02-11T03:22:29.875Z,74.54
2019-02-11T03:24:58.085Z,75.11
2019-02-11T03:27:25.480Z,75.02
2019-02-11T03:29:52.927Z,74.71
2019-02-11T03:32:20.326Z,74.83
2019-02-11T03:34:47.720Z,74.49
2019-02-11T03:37:15.105Z,73.25
2019-02-11T03:39:42.538Z,72.35
2019-02-11T03:42:09.915Z,72.29
2019-02-11T03:44:37.345Z,72.12
2019-02-11T03:47:04.822Z,71.05
2019-02-11T03:49:32.225Z,70.92
2019-02-11T03:51:59.722Z,71.29
2019-02-11T03:54:27.103Z,71.07
2019-02-11T03:56:54.509Z,68.78
2019-02-11T03:59:22.091Z,69.17
2019-02-11T04:01:49.475Z,68.80
2019-02-11T04:04:17.381Z,66.20
2019-02-11T04:06:44.772Z,65.70
2019-02-11T04:09:12.329Z,64.70
2019-02-11T04:11:39.719Z,64.15
2019-02-11T04:14:07.131Z,65.43
2019-02-11T04:16:34.546Z,66.18
2019-02-11T04:19:01.952Z,65.16
2019-02-11T04:21:29.415Z,64.05
2019-02-11T04:23:56.793Z,63.75
2019-02-11T04:26:24.191Z,63.34
2019-02-11T04:28:51.783Z,62.95
2019-02-11T04:31:19.169Z,63.18
2019-02-11T04:33:46.575Z,63.38
2019-02-11T04:36:14.078Z,62.83
2019-02-11T04:38:41.524Z,62.75
2019-02-11T04:41:09.706Z,63.01
2019-02-11T04:43:37.124Z,62.41
2019-02-11T04:46:04.537Z,61.78
2019-02-11T04:48:31.932Z,62.41
2019-02-11T04:50:59.410Z,60.99
2019-02-11T04:53:26.851Z,58.93
2019-02-11T04:55:54.483Z,59.53
2019-02-11T04:58:21.886Z,59.93
2019-02-11T05:00:49.268Z,59.75
2019-02-11T05:03:16.695Z,59.44
2019-02-11T05:05:44.874Z,62.29
2019-02-11T05:08:12.253Z,65.69
2019-02-11T05:10:39.641Z,66.54
2019-02-11T05:13:07.047Z,66.87
2019-02-11T05:15:34.440Z,67.03
2019-02-11T05:18:01.962Z,65.24
2019-02-11T05:20:29.417Z,65.15
2019-02-11T05:22:57.307Z,64.63
2019-02-11T05:25:24.704Z,63.17
2019-02-11T05:27:52.397Z,65.20
2019-02-11T05:30:19.833Z,63.68
2019-02-11T05:32:47.320Z,60.48
2019-02-11T05:35:14.723Z,59.82
2019-02-11T05:37:44.061Z,59.27
2019-02-11T05:40:09.583Z,59.83
2019-02-11T05:42:37.023Z,61.30
2019-02-11T05:45:04.401Z,63.07
2019-02-11T05:47:31.847Z,64.25
2019-02-11T05:49:59.269Z,64.47
2019-02-11T05:52:26.815Z,64.99
2019-02-11T05:54:54.208Z,65.30
2019-02-11T05:57:22.175Z,65.50
2019-02-11T05:59:49.594Z,65.61
2019-02-11T06:02:16.991Z,65.47
2019-02-11T06:04:44.378Z,65.40
2019-02-11T06:07:11.813Z,65.42
2019-02-11T06:09:39.274Z,65.28
2019-02-11T06:12:06.662Z,64.69
2019-02-11T06:14:34.060Z,64.36
2019-02-11T06:17:01.466Z,63.34
2019-02-11T06:19:28.899Z,63.21
2019-02-11T06:21:56.292Z,63.30
2019-02-11T06:24:23.693Z,62.03
2019-02-11T06:26:51.088Z,60.63
2019-02-11T06:29:19.105Z,60.41
2019-02-11T06:31:45.907Z,60.13
2019-02-11T06:34:13.318Z,59.50
2019-02-11T06:36:40.790Z,58.47
2019-02-11T06:39:08.195Z,57.71
2019-02-11T06:41:35.727Z,57.87
2019-02-11T06:44:04.129Z,59.27
2019-02-11T06:46:31.531Z,60.21
2019-02-11T06:48:58.923Z,61.67
2019-02-11T06:51:26.323Z,62.49
2019-02-11T06:53:53.770Z,63.03
2019-02-11T06:56:21.330Z,63.73
2019-02-11T06:58:49.604Z,64.71
2019-02-11T07:01:17.019Z,65.05
2019-02-11T07:03:44.994Z,65.64
2019-02-11T07:06:12.440Z,66.11
2019-02-11T07:08:39.821Z,67.08
2019-02-11T07:11:07.231Z,68.48
2019-02-11T07:13:34.643Z,69.23
2019-02-11T07:16:02.032Z,69.75
2019-02-11T07:18:29.437Z,69.62
2019-02-11T07:20:57.046Z,69.65
2019-02-11T07:23:24.434Z,69.28
2019-02-11T07:25:51.834Z,69.38
2019-02-11T07:28:19.231Z,69.40
2019-02-11T07:30:46.611Z,69.06
2019-02-11T07:33:14.016Z,69.01
2019-02-11T07:35:41.418Z,69.11
2019-02-11T07:38:09.804Z,69.07
2019-02-11T07:40:37.218Z,69.33
2019-02-11T07:43:05.112Z,69.94
2019-02-11T07:45:37.482Z,70.32
2019-02-11T07:48:04.943Z,70.97
2019-02-11T07:50:32.503Z,70.91
2019-02-11T07:52:59.930Z,70.73
2019-02-11T07:55:27.527Z,71.45
2019-02-11T07:57:54.981Z,71.55
2019-02-11T08:00:22.643Z,71.26
2019-02-11T08:02:50.059Z,71.48
2019-02-11T08:05:17.440Z,72.17
2019-02-11T08:07:44.844Z,72.14
2019-02-11T08:10:12.240Z,72.22
2019-02-11T08:12:39.650Z,72.29
2019-02-11T08:15:07.753Z,72.32
2019-02-11T08:17:35.349Z,72.05
2019-02-11T08:20:02.811Z,71.90
2019-02-11T08:22:30.252Z,71.85
2019-02-11T08:24:57.734Z,72.10
2019-02-11T08:27:25.181Z,71.53
2019-02-11T08:29:52.564Z,70.88
2019-02-11T08:32:19.963Z,70.55
2019-02-11T08:34:47.384Z,70.38
2019-02-11T08:37:14.788Z,70.52
2019-02-11T08:39:42.200Z,70.24
2019-02-11T08:42:09.606Z,70.32
2019-02-11T08:44:37.041Z,70.17
2019-02-11T08:47:05.025Z,69.82
2019-02-11T08:49:32.500Z,69.96
2019-02-11T08:51:59.907Z,70.39
2019-02-11T08:54:27.422Z,70.72
2019-02-11T08:56:54.805Z,71.10
2019-02-11T08:59:22.663Z,71.48
2019-02-11T09:01:50.762Z,70.90
2019-02-11T09:04:19.157Z,70.46
2019-02-11T09:06:45.550Z,70.34
2019-02-11T09:09:12.964Z,70.79
2019-02-11T09:11:40.363Z,71.49
2019-02-11T09:14:07.819Z,71.45
2019-02-11T09:16:35.291Z,71.20
2019-02-11T09:19:02.716Z,70.57
2019-02-11T09:21:30.164Z,69.52
2019-02-11T09:23:57.557Z,68.48
2019-02-11T09:26:24.962Z,67.45
2019-02-11T09:28:52.544Z,66.26
2019-02-11T09:31:19.939Z,66.19
2019-02-11T09:33:47.333Z,66.38
2019-02-11T09:36:14.737Z,66.79
2019-02-11T09:38:42.126Z,67.15
2019-02-11T09:41:09.538Z,67.40
2019-02-11T09:43:36.967Z,67.58
2019-02-11T09:46:04.404Z,67.59
2019-02-11T09:48:31.983Z,67.66
2019-02-11T09:50:59.379Z,67.37
2019-02-11T09:53:26.773Z,67.34
2019-02-11T09:55:54.167Z,67.55
2019-02-11T09:58:22.234Z,67.67
2019-02-11T10:00:49.629Z,67.42
2019-02-11T10:03:17.023Z,67.27
2019-02-11T10:05:44.550Z,66.47
2019-02-11T10:08:12.144Z,66.19
2019-02-11T10:10:39.572Z,65.65
2019-02-11T10:13:06.944Z,65.46
2019-02-11T10:15:34.359Z,65.83
2019-02-11T10:18:01.754Z,66.52
2019-02-11T10:20:29.147Z,67.23
2019-02-11T10:22:56.536Z,66.73
2019-02-11T10:25:24.190Z,66.58
2019-02-11T10:27:52.602Z,66.40
2019-02-11T10:30:20.367Z,66.65
2019-02-11T10:32:47.767Z,66.56
2019-02-11T10:35:15.168Z,67.08
2019-02-11T10:37:42.550Z,68.15
2019-02-11T10:40:09.948Z,67.83
2019-02-11T10:42:37.483Z,67.80
2019-02-11T10:45:04.910Z,67.95
2019-02-11T10:47:32.325Z,68.55
2019-02-11T10:49:59.724Z,68.59
2019-02-11T10:52:27.255Z,68.59
2019-02-11T10:54:55.660Z,68.40
2019-02-11T10:57:23.049Z,68.59
2019-02-11T10:59:50.508Z,68.72
2019-02-11T11:02:18.524Z,69.06
2019-02-11T11:04:46.013Z,69.12
2019-02-11T11:07:13.405Z,68.48
2019-02-11T11:09:41.807Z,68.76
2019-02-11T11:12:09.331Z,68.87
2019-02-11T11:14:36.705Z,68.87
2019-02-11T11:17:04.121Z,68.95
2019-02-11T11:19:31.511Z,68.67
2019-02-11T11:21:59.117Z,67.94
2019-02-11T11:24:26.515Z,68.79
2019-02-11T11:26:53.971Z,69.30
2019-02-11T11:29:21.358Z,69.17
2019-02-11T11:31:48.755Z,69.75
2019-02-11T11:34:16.979Z,70.23
2019-02-11T11:36:44.413Z,70.50
2019-02-11T11:39:21.754Z,70.10
2019-02-11T11:41:49.264Z,69.63
2019-02-11T11:44:17.303Z,69.38
2019-02-11T11:46:47.137Z,68.82
2019-02-11T11:49:12.236Z,68.47
2019-02-11T11:51:40.673Z,68.60
2019-02-11T11:54:07.045Z,67.41
2019-02-11T11:56:34.522Z,67.40
2019-02-11T11:59:01.994Z,68.25
2019-02-11T12:01:29.451Z,67.49
2019-02-11T12:03:56.870Z,67.20
2019-02-11T12:06:25.723Z,67.12
2019-02-11T12:08:51.719Z,66.50
2019-02-11T12:11:19.586Z,66.88
2019-02-11T12:13:47.179Z,67.80
2019-02-11T12:16:14.599Z,68.62
2019-02-11T12:18:42.797Z,68.80
2019-02-11T12:21:10.197Z,68.64
2019-02-11T12:23:37.599Z,68.22
2019-02-11T12:26:05.045Z,67.91
2019-02-11T12:28:32.902Z,67.12
2019-02-11T12:31:00.717Z,66.23
2019-02-11T12:33:28.115Z,64.95
2019-02-11T12:35:55.533Z,63.65
2019-02-11T12:38:23.138Z,63.00
2019-02-11T12:40:50.644Z,62.93
2019-02-11T12:43:18.061Z,62.38
2019-02-11T12:45:45.510Z,62.45
2019-02-11T12:48:12.919Z,62.60
2019-02-11T12:50:40.371Z,60.50
2019-02-11T12:53:07.803Z,59.97
2019-02-11T12:55:34.746Z,56.45
2019-02-11T12:58:01.724Z,51.17
2019-02-11T13:00:28.687Z,47.24
2019-02-11T13:02:55.628Z,47.74
2019-02-11T13:05:32.270Z,46.64
2019-02-11T13:07:50.188Z,45.97
2019-02-11T13:10:17.639Z,46.60
2019-02-11T13:12:45.163Z,49.63
2019-02-11T13:15:12.542Z,51.49
2019-02-11T13:17:40.019Z,53.32
2019-02-11T13:20:10.582Z,54.30
2019-02-11T13:22:34.925Z,54.79
2019-02-11T13:25:07.200Z,53.32
2019-02-11T13:27:29.782Z,52.20
2019-02-11T13:29:57.285Z,55.04
2019-02-11T13:32:24.699Z,58.34
2019-02-11T13:34:52.223Z,60.51
2019-02-11T13:37:19.695Z,61.58
2019-02-11T13:39:47.095Z,62.33
2019-02-11T13:42:14.492Z,62.29
2019-02-11T13:44:41.942Z,61.97
2019-02-11T13:47:09.334Z,61.35
2019-02-11T13:49:36.764Z,60.79
2019-02-11T13:52:04.187Z,57.38
2019-02-11T13:54:31.592Z,53.11
2019-02-11T13:56:59.034Z,54.10
2019-02-11T13:59:27.143Z,56.68
2019-02-11T14:01:54.544Z,58.21
2019-02-11T14:04:21.999Z,57.98
2019-02-11T14:06:49.410Z,57.22
2019-02-11T14:09:16.824Z,57.34
2019-02-11T14:11:44.241Z,58.18
2019-02-11T14:14:11.684Z,58.56
2019-02-11T14:16:39.118Z,58.48
2019-02-11T14:19:06.504Z,57.57
2019-02-11T14:21:34.777Z,58.64
2019-02-11T14:24:02.162Z,59.29
2019-02-11T14:26:29.562Z,59.08
2019-02-11T14:28:57.054Z,59.49
2019-02-11T14:31:25.093Z,61.18
2019-02-11T14:33:52.517Z,62.28
2019-02-11T14:36:20.086Z,62.82
2019-02-11T14:38:48.060Z,62.84
2019-02-11T14:41:15.499Z,62.24
2019-02-11T14:43:43.085Z,61.85
2019-02-11T14:46:10.513Z,62.15
2019-02-11T14:48:37.985Z,62.63
2019-02-11T14:51:06.205Z,61.70
2019-02-11T14:53:33.597Z,59.72
2019-02-11T14:56:00.987Z,59.41
2019-02-11T14:58:28.411Z,58.75
2019-02-11T15:00:55.840Z,58.26
2019-02-11T15:03:23.324Z,57.80
2019-02-11T15:05:50.754Z,57.17
2019-02-11T15:08:18.150Z,57.76
2019-02-11T15:10:45.594Z,58.14
2019-02-11T15:13:12.994Z,58.11
2019-02-11T15:15:40.471Z,57.88
2019-02-11T15:18:07.863Z,57.45
2019-02-11T15:20:35.309Z,57.32
2019-02-11T15:23:02.745Z,57.29
2019-02-11T15:25:30.315Z,57.23
2019-02-11T15:27:57.709Z,57.63
2019-02-11T15:30:25.133Z,58.09
2019-02-11T15:32:52.551Z,57.98
2019-02-11T15:35:20.069Z,57.75
2019-02-11T15:37:47.494Z,57.55
2019-02-11T15:40:16.737Z,57.60
2019-02-11T15:42:44.143Z,58.03
2019-02-11T15:45:11.579Z,57.42
2019-02-11T15:47:38.992Z,57.01
2019-02-11T15:50:07.135Z,57.51
2019-02-11T15:52:34.566Z,57.37
2019-02-11T15:55:02.128Z,57.11
2019-02-11T15:57:29.542Z,57.71
2019-02-11T15:59:56.930Z,57.79
2019-02-11T16:02:24.716Z,57.75
2019-02-11T16:04:52.235Z,58.78
2019-02-11T16:07:19.651Z,59.87
2019-02-11T16:09:47.332Z,60.62
2019-02-11T16:12:14.815Z,62.03
2019-02-11T16:14:42.275Z,63.24
2019-02-11T16:17:09.690Z,63.66
2019-02-11T16:19:37.153Z,63.77
2019-02-11T16:22:04.591Z,64.33
2019-02-11T16:24:32.003Z,64.52
2019-02-11T16:26:59.395Z,65.40
2019-02-11T16:29:26.802Z,65.72
2019-02-11T16:32:00.542Z,66.06
2019-02-11T16:34:21.638Z,66.08
2019-02-11T16:36:49.061Z,66.32
2019-02-11T16:39:18.302Z,66.39
2019-02-11T16:41:45.721Z,66.33
2019-02-11T16:44:14.195Z,66.70
2019-02-11T16:46:41.577Z,66.52
2019-02-11T16:49:08.971Z,66.63
2019-02-11T16:51:36.433Z,66.82
2019-02-11T16:54:03.716Z,67.02
2019-02-11T16:56:30.466Z,66.70
2019-02-11T16:58:57.427Z,66.66
2019-02-11T17:01:24.368Z,66.33
2019-02-11T17:03:51.294Z,66.42
2019-02-11T17:06:18.292Z,66.62
2019-02-11T17:08:45.223Z,66.72
2019-02-11T17:11:12.321Z,67.25
2019-02-11T17:13:39.247Z,67.55
2019-02-11T17:16:06.178Z,67.73
2019-02-11T17:18:33.154Z,67.91
2019-02-11T17:21:00.728Z,68.34
2019-02-11T17:23:27.674Z,68.68
2019-02-11T17:25:54.607Z,69.02
2019-02-11T17:28:21.660Z,68.96
2019-02-11T17:30:48.638Z,69.33
2019-02-11T17:33:15.661Z,69.19
2019-02-11T17:35:42.611Z,69.35
2019-02-11T17:38:09.589Z,69.74
2019-02-11T17:40:36.570Z,69.80
2019-02-11T17:43:03.547Z,70.02
2019-02-11T17:45:30.473Z,69.64
2019-02-11T17:47:57.436Z,69.27
2019-02-11T17:50:24.378Z,69.10
2019-02-11T17:52:51.744Z,69.11
2019-02-11T17:55:19.234Z,68.81
2019-02-11T17:57:46.191Z,68.54
2019-02-11T18:00:22.248Z,68.78
2019-02-11T18:02:49.548Z,68.96
2019-02-11T18:05:16.648Z,69.31
2019-02-11T18:07:43.677Z,69.20
2019-02-11T18:10:10.663Z,69.14
2019-02-11T18:12:38.058Z,68.88
2019-02-11T18:15:05.563Z,69.05
2019-02-11T18:17:32.562Z,68.91
2019-02-11T18:19:59.964Z,69.20
2019-02-11T18:22:29.078Z,69.06
2019-02-11T18:24:56.636Z,68.90
2019-02-11T18:27:24.151Z,69.33
2019-02-11T18:29:51.539Z,69.58
2019-02-11T18:32:18.938Z,69.37
2019-02-11T18:34:47.568Z,69.69
2019-02-11T18:37:13.443Z,70.10
2019-02-11T18:39:40.388Z,69.99
2019-02-11T18:42:07.438Z,69.62
2019-02-11T18:44:34.432Z,69.87
2019-02-11T18:47:01.358Z,70.01
2019-02-11T18:49:34.390Z,69.92
2019-02-11T18:51:56.220Z,69.76
2019-02-11T18:54:23.811Z,69.57
2019-02-11T18:56:51.261Z,69.53
2019-02-11T18:59:24.503Z,69.43
2019-02-11T19:01:46.109Z,69.68
2019-02-11T19:04:15.542Z,69.60
2019-02-11T19:06:41.115Z,69.65
2019-02-11T19:09:08.547Z,69.72
2019-02-11T19:11:36.051Z,69.81
2019-02-11T19:14:04.281Z,70.01
2019-02-11T19:16:31.666Z,69.84
2019-02-11T19:18:59.306Z,69.86
2019-02-11T19:21:26.723Z,69.77
2019-02-11T19:23:54.468Z,70.00
2019-02-11T19:26:21.863Z,70.11
2019-02-11T19:28:49.324Z,70.08
2019-02-11T19:31:16.702Z,69.93
2019-02-11T19:33:44.165Z,69.79
2019-02-11T19:36:11.579Z,69.78
2019-02-11T19:38:39.110Z,70.00
2019-02-11T19:41:06.507Z,69.96
2019-02-11T19:43:34.041Z,69.85
2019-02-11T19:46:01.443Z,69.78
2019-02-11T19:48:28.892Z,69.90
2019-02-11T19:50:56.309Z,70.66
2019-02-11T19:53:23.768Z,71.12
2019-02-11T19:55:51.169Z,71.42
2019-02-11T19:58:18.679Z,71.66
2019-02-11T20:00:46.060Z,71.54
2019-02-11T20:03:13.555Z,71.28
2019-02-11T20:05:40.988Z,71.64
2019-02-11T20:08:08.377Z,71.87
2019-02-11T20:10:35.779Z,71.77
2019-02-11T20:13:03.274Z,71.63
2019-02-11T20:15:30.766Z,71.83
2019-02-11T20:17:58.157Z,72.13
2019-02-11T20:20:25.684Z,72.37
2019-02-11T20:22:53.091Z,73.22
2019-02-11T20:25:20.548Z,72.91
2019-02-11T20:27:48.017Z,72.77
2019-02-11T20:30:17.479Z,72.52
2019-02-11T20:32:44.871Z,72.23
2019-02-11T20:35:12.280Z,72.25
2019-02-11T20:37:39.672Z,72.43
2019-02-11T20:40:10.436Z,72.14
2019-02-11T20:42:37.858Z,71.94
2019-02-11T20:45:09.214Z,71.77
2019-02-11T20:47:36.666Z,71.37
2019-02-11T20:50:09.323Z,70.73
2019-02-11T20:52:31.589Z,70.33
2019-02-11T20:54:58.991Z,69.78
2019-02-11T20:57:26.402Z,69.53
2019-02-11T20:59:53.800Z,69.70
2019-02-11T21:02:21.194Z,70.03
2019-02-11T21:04:48.590Z,71.04
2019-02-11T21:07:15.990Z,71.90
2019-02-11T21:09:43.538Z,72.53
2019-02-11T21:12:11.010Z,72.29
2019-02-11T21:14:38.417Z,72.19
2019-02-11T21:17:05.819Z,72.03
2019-02-11T21:19:33.268Z,71.78
2019-02-11T21:22:00.750Z,71.69
2019-02-11T21:24:28.145Z,71.72
2019-02-11T21:26:55.557Z,71.47
2019-02-11T21:29:22.953Z,71.50
2019-02-11T21:31:50.381Z,71.90
2019-02-11T21:34:17.790Z,71.54
2019-02-11T21:36:45.307Z,71.48
2019-02-11T21:39:12.729Z,71.43
2019-02-11T21:41:40.122Z,71.11
2019-02-11T21:44:07.746Z,71.17
2019-02-11T21:46:35.342Z,71.25
2019-02-11T21:49:02.761Z,71.19
2019-02-11T21:51:30.359Z,71.35
2019-02-11T21:53:57.858Z,71.57
2019-02-11T21:56:25.474Z,71.56
2019-02-11T21:58:52.858Z,71.62
2019-02-11T22:01:20.256Z,71.67
2019-02-11T22:03:47.850Z,72.05
2019-02-11T22:06:15.353Z,71.81
2019-02-11T22:08:42.762Z,71.90
2019-02-11T22:11:10.226Z,72.02
2019-02-11T22:13:37.708Z,72.15
2019-02-11T22:16:05.116Z,72.39
2019-02-11T22:18:32.657Z,72.75
2019-02-11T22:21:00.030Z,73.16
2019-02-11T22:23:27.835Z,73.35
2019-02-11T22:25:55.242Z,73.43
2019-02-11T22:28:22.632Z,73.52
2019-02-11T22:30:50.071Z,73.67
2019-02-11T22:33:17.453Z,73.89
2019-02-11T22:35:44.850Z,74.05
2019-02-11T22:38:12.238Z,74.10
2019-02-11T22:40:39.627Z,73.97
2019-02-11T22:43:07.049Z,73.92
2019-02-11T22:45:34.739Z,74.15
2019-02-11T22:48:02.234Z,74.36
2019-02-11T22:50:29.629Z,74.50
2019-02-11T22:52:57.030Z,74.76
2019-02-11T22:55:24.422Z,74.94
2019-02-11T22:57:51.827Z,75.17
2019-02-11T23:00:23.740Z,75.49
2019-02-11T23:02:51.144Z,75.69
2019-02-11T23:05:18.615Z,75.76
2019-02-11T23:07:46.011Z,75.64
2019-02-11T23:10:13.422Z,75.53
2019-02-11T23:12:40.953Z,75.40
2019-02-11T23:15:08.329Z,75.14
2019-02-11T23:17:35.769Z,75.07
2019-02-11T23:20:03.172Z,74.94
2019-02-11T23:22:30.562Z,75.10
2019-02-11T23:24:58.035Z,75.64
2019-02-11T23:27:25.419Z,75.82
2019-02-11T23:29:52.950Z,75.70
2019-02-11T23:32:20.407Z,75.87
2019-02-11T23:34:47.806Z,76.40
2019-02-11T23:37:15.191Z,76.51
2019-02-11T23:39:42.721Z,76.81
2019-02-11T23:42:10.095Z,77.13
2019-02-11T23:44:37.498Z,77.14
2019-02-11T23:47:04.947Z,77.45
2019-02-11T23:49:32.351Z,77.81
2019-02-11T23:51:59.748Z,77.94
2019-02-11T23:54:27.318Z,77.62
2019-02-11T23:56:54.719Z,77.63
2019-02-11T23:59:22.233Z,77.50
